Racine, Ohio
Current Conditions -  °F | °C
As of 2:55 PM on Saturday 25 Oct 2014 (Local Time) from K3I2 Reporting Station
Overcast Overcast  
Wind Chill: 68°   Ceiling: 3200
Heat Index: 68°   Visibility: 10mi
Dew Point: 52°   Wind: 13mph
Humidity: 56%   Direction: 230°SW
Pressure: 29.94"   Gusts: 18mph
Location:  38.97°N, 81.91°W
Report Text: K3I2 251855Z AUTO 23011G16KT 10SM OVC032 20/11 A2994 RMK AO2
Loading
Personal Weather Stations






























Interactive Weather Map
Tropical Storm Tracking
New forecast layout! Learn more

10-Day Weather Forecast

Advertisements
Track Severe Weather on mobile